createdAt,value
2023-12-11T00:01:16.077Z,9.59
2023-12-11T00:06:20.176Z,9.61
2023-12-11T00:11:24.318Z,9.62
2023-12-11T00:16:28.532Z,9.58
2023-12-11T00:21:32.739Z,9.59
2023-12-11T00:26:36.830Z,9.47
2023-12-11T00:31:41.010Z,9.39
2023-12-11T00:36:45.198Z,9.36
2023-12-11T00:41:49.334Z,9.27
2023-12-11T00:46:53.485Z,9.21
2023-12-11T00:51:57.641Z,9.18
2023-12-11T00:57:01.799Z,9.09
2023-12-11T01:02:05.970Z,9.17
2023-12-11T01:07:10.204Z,9.17
2023-12-11T01:12:14.325Z,9.21
2023-12-11T01:17:37.485Z,9.24
2023-12-11T01:22:22.608Z,9.22
2023-12-11T01:27:26.770Z,9.29
2023-12-11T01:37:35.098Z,9.43
2023-12-11T01:42:39.258Z,9.45
2023-12-11T01:47:43.475Z,9.46
2023-12-11T01:52:47.580Z,9.36
2023-12-11T01:57:51.749Z,9.37
2023-12-11T02:02:55.939Z,9.32
2023-12-11T02:08:00.088Z,9.31
2023-12-11T02:13:04.291Z,9.37
2023-12-11T02:18:08.420Z,9.41
2023-12-11T02:23:12.552Z,9.41
2023-12-11T02:28:16.728Z,9.48
2023-12-11T02:33:20.930Z,9.39
2023-12-11T02:38:25.074Z,9.31
2023-12-11T02:43:29.164Z,9.23
2023-12-11T02:48:33.726Z,9.37
2023-12-11T02:53:37.509Z,9.43
2023-12-11T02:58:41.672Z,9.30
2023-12-11T03:03:45.934Z,9.25
2023-12-11T03:08:49.979Z,9.23
2023-12-11T03:13:54.184Z,9.26
2023-12-11T03:18:58.431Z,9.21
2023-12-11T03:24:02.511Z,9.24
2023-12-11T03:29:06.683Z,9.28
2023-12-11T03:34:09.014Z,9.24
2023-12-11T03:39:13.119Z,9.31
2023-12-11T03:44:17.260Z,9.41
2023-12-11T03:49:21.514Z,9.54
2023-12-11T03:54:25.588Z,9.29
2023-12-11T03:59:29.739Z,9.14
2023-12-11T04:04:34.000Z,9.05
2023-12-11T04:09:38.078Z,9.04
2023-12-11T04:14:42.185Z,9.17
2023-12-11T04:19:46.502Z,9.21
2023-12-11T04:24:50.654Z,9.22
2023-12-11T04:29:54.718Z,9.24
2023-12-11T04:34:58.888Z,9.33
2023-12-11T04:40:03.099Z,9.36
2023-12-11T04:45:07.174Z,9.38
2023-12-11T04:50:11.344Z,9.41
2023-12-11T04:55:15.598Z,9.21
2023-12-11T05:00:19.676Z,8.95
2023-12-11T05:05:23.916Z,8.78
2023-12-11T05:10:27.966Z,8.73
2023-12-11T05:15:32.314Z,8.75
2023-12-11T05:20:36.321Z,8.77
2023-12-11T05:25:40.491Z,8.71
2023-12-11T05:30:44.651Z,8.61
2023-12-11T05:35:48.818Z,8.46
2023-12-11T05:40:52.965Z,8.34
2023-12-11T05:45:57.170Z,8.28
2023-12-11T05:51:01.281Z,8.31
2023-12-11T05:56:05.428Z,8.35
2023-12-11T06:01:09.816Z,8.35
2023-12-11T06:06:13.841Z,8.37
2023-12-11T06:11:17.942Z,8.45
2023-12-11T06:16:22.102Z,8.47
2023-12-11T06:21:26.280Z,8.66
2023-12-11T06:26:30.438Z,8.71
2023-12-11T06:31:34.628Z,8.76
2023-12-11T06:36:38.811Z,8.87
2023-12-11T06:41:42.921Z,8.89
2023-12-11T06:46:47.114Z,8.98
2023-12-11T06:51:51.482Z,8.93
2023-12-11T06:56:55.396Z,9.03
2023-12-11T07:01:59.703Z,9.11
2023-12-11T07:07:03.799Z,9.09
2023-12-11T07:12:07.903Z,9.11
2023-12-11T07:17:12.072Z,9.13
2023-12-11T07:22:16.397Z,9.07
2023-12-11T07:27:20.377Z,9.02
2023-12-11T07:32:24.574Z,9.00
2023-12-11T07:37:28.859Z,9.01
2023-12-11T07:42:32.850Z,9.06
2023-12-11T07:47:37.366Z,9.05
2023-12-11T07:52:41.285Z,9.08
2023-12-11T07:57:45.339Z,8.99
2023-12-11T08:02:49.504Z,8.92
2023-12-11T08:07:53.665Z,8.89
2023-12-11T08:12:57.848Z,8.92
2023-12-11T08:18:02.047Z,8.76
2023-12-11T08:23:06.155Z,8.66
2023-12-11T08:28:10.341Z,8.65
2023-12-11T08:33:14.554Z,8.68
2023-12-11T08:38:18.613Z,8.67
2023-12-11T08:43:22.874Z,8.66
2023-12-11T08:48:28.688Z,8.67
2023-12-11T08:53:31.108Z,8.71
2023-12-11T08:58:35.297Z,8.76
2023-12-11T09:03:37.670Z,8.76
2023-12-11T09:08:41.707Z,8.80
2023-12-11T09:13:45.906Z,8.84
2023-12-11T09:18:50.203Z,8.87
2023-12-11T09:23:54.193Z,8.93
2023-12-11T09:28:58.443Z,9.01
2023-12-11T09:34:02.694Z,9.10
2023-12-11T09:39:06.671Z,9.06
2023-12-11T09:44:10.873Z,9.03
2023-12-11T09:49:15.147Z,9.02
2023-12-11T09:54:19.158Z,8.98
2023-12-11T09:59:23.341Z,9.04
2023-12-11T10:04:27.522Z,8.98
2023-12-11T10:09:31.686Z,8.89
2023-12-11T10:14:35.837Z,8.79
2023-12-11T10:19:40.080Z,8.65
2023-12-11T10:24:44.158Z,8.57
2023-12-11T10:29:48.273Z,8.46
2023-12-11T10:34:52.754Z,8.40
2023-12-11T10:39:56.867Z,8.39
2023-12-11T10:45:00.859Z,8.47
2023-12-11T10:50:05.016Z,8.54
2023-12-11T10:55:09.130Z,8.55
2023-12-11T11:00:13.287Z,8.62
2023-12-11T11:05:17.463Z,8.62
2023-12-11T11:10:21.964Z,8.61
2023-12-11T11:15:25.810Z,8.62
2023-12-11T11:20:29.924Z,8.62
2023-12-11T11:25:34.378Z,8.63
2023-12-11T11:30:38.425Z,8.61
2023-12-11T11:35:42.419Z,8.65
2023-12-11T11:40:46.743Z,8.63
2023-12-11T11:45:50.795Z,8.59
2023-12-11T11:50:54.901Z,8.45
2023-12-11T11:55:59.161Z,8.35
2023-12-11T12:01:03.292Z,8.29
2023-12-11T12:06:07.503Z,8.20
2023-12-11T12:11:11.545Z,8.13
2023-12-11T12:16:15.749Z,8.09
2023-12-11T12:21:19.870Z,8.09
2023-12-11T12:26:24.038Z,8.10
2023-12-11T12:31:28.251Z,8.17
2023-12-11T12:36:32.336Z,8.23
2023-12-11T12:41:36.506Z,8.27
2023-12-11T12:46:40.675Z,8.26
2023-12-11T12:51:44.898Z,8.32
2023-12-11T12:56:48.994Z,8.37
2023-12-11T13:01:53.260Z,8.38
2023-12-11T13:06:57.382Z,8.38
2023-12-11T13:12:01.467Z,8.37
2023-12-11T13:17:05.704Z,8.35
2023-12-11T13:22:09.919Z,8.37
2023-12-11T13:27:13.974Z,8.33
2023-12-11T13:32:18.146Z,8.26
2023-12-11T13:37:22.330Z,8.20
2023-12-11T13:42:26.470Z,8.13
2023-12-11T13:47:30.944Z,8.13
2023-12-11T13:52:34.811Z,8.14
2023-12-11T13:57:38.948Z,8.06
2023-12-11T14:03:00.221Z,7.96
2023-12-11T14:07:47.256Z,7.88
2023-12-11T14:12:51.468Z,7.78
2023-12-11T14:17:55.682Z,7.84
2023-12-11T14:22:59.759Z,7.84
2023-12-11T14:28:04.000Z,7.82
2023-12-11T14:33:06.380Z,7.96
2023-12-11T14:38:10.339Z,7.98
2023-12-11T14:43:14.623Z,7.92
2023-12-11T14:48:18.782Z,7.92
2023-12-11T14:53:22.863Z,7.94
2023-12-11T14:58:27.076Z,7.95
2023-12-11T15:03:29.343Z,7.96
2023-12-11T15:08:33.418Z,7.93
2023-12-11T15:13:37.628Z,7.90
2023-12-11T15:18:41.781Z,7.87
2023-12-11T15:23:45.946Z,7.82
2023-12-11T15:28:50.125Z,7.77
2023-12-11T15:33:54.471Z,7.68
2023-12-11T15:38:58.396Z,7.65
2023-12-11T15:44:02.614Z,7.62
2023-12-11T15:49:06.853Z,7.59
2023-12-11T15:54:10.923Z,7.56
2023-12-11T15:59:15.077Z,7.55
2023-12-11T16:04:19.246Z,7.54
2023-12-11T16:09:23.359Z,7.52
2023-12-11T16:14:27.540Z,7.47
2023-12-11T16:19:31.846Z,7.42
2023-12-11T16:24:35.851Z,7.40
2023-12-11T16:29:40.038Z,7.38
2023-12-11T16:34:44.339Z,7.37
2023-12-11T16:39:48.413Z,7.30
2023-12-11T16:44:52.519Z,7.27
2023-12-11T16:50:06.060Z,7.29
2023-12-11T16:55:01.039Z,7.30
2023-12-11T17:00:05.027Z,7.35
2023-12-11T17:05:09.360Z,7.38
2023-12-11T17:10:13.478Z,7.41
2023-12-11T17:15:17.493Z,7.46
2023-12-11T17:20:21.782Z,7.49
2023-12-11T17:25:25.878Z,7.52
2023-12-11T17:30:30.024Z,7.57
2023-12-11T17:35:34.180Z,7.55
2023-12-11T17:40:38.355Z,7.51
2023-12-11T17:45:42.664Z,7.46
2023-12-11T17:50:46.676Z,7.44
2023-12-11T18:00:55.022Z,7.52
2023-12-11T18:05:59.166Z,7.56
2023-12-11T18:11:03.327Z,7.58
2023-12-11T18:16:07.498Z,7.60
2023-12-11T18:21:11.676Z,7.62
2023-12-11T18:26:15.797Z,7.65
2023-12-11T18:31:20.039Z,7.67
2023-12-11T18:36:24.109Z,7.70
2023-12-11T18:41:28.301Z,7.72
2023-12-11T18:46:32.554Z,7.77
2023-12-11T18:51:36.588Z,7.76
2023-12-11T18:56:40.787Z,7.80
2023-12-11T19:01:45.042Z,7.83
2023-12-11T19:06:49.085Z,7.85
2023-12-11T19:11:53.255Z,7.87
2023-12-11T19:16:57.410Z,7.90
2023-12-11T19:22:01.584Z,7.92
2023-12-11T19:27:05.742Z,7.99
2023-12-11T19:32:10.037Z,8.00
2023-12-11T19:37:14.106Z,8.00
2023-12-11T19:42:18.546Z,8.01
2023-12-11T19:47:22.462Z,8.00
2023-12-11T19:52:26.596Z,7.99
2023-12-11T19:57:31.058Z,7.94
2023-12-11T20:02:34.853Z,7.94
2023-12-11T20:07:39.032Z,7.93
2023-12-11T20:12:43.217Z,7.86
2023-12-11T20:17:47.408Z,7.79
2023-12-11T20:22:51.558Z,7.76
2023-12-11T20:27:55.690Z,7.69
2023-12-11T20:32:58.051Z,7.68
2023-12-11T20:38:02.125Z,7.67
2023-12-11T20:43:06.288Z,7.64
2023-12-11T20:48:10.525Z,7.68
2023-12-11T20:53:14.609Z,7.68
2023-12-11T20:58:18.838Z,7.66
2023-12-11T21:03:22.915Z,7.68
2023-12-11T21:08:27.073Z,7.67
2023-12-11T21:13:31.370Z,7.62
2023-12-11T21:18:35.575Z,7.59
2023-12-11T21:23:39.597Z,7.65
2023-12-11T21:28:43.762Z,7.67
2023-12-11T21:33:47.985Z,7.62
2023-12-11T21:38:52.144Z,7.56
2023-12-11T21:43:56.228Z,7.51
2023-12-11T21:49:02.505Z,7.45
2023-12-11T21:54:04.567Z,7.42
2023-12-11T21:59:08.700Z,7.46
2023-12-11T22:04:12.961Z,7.45
2023-12-11T22:09:17.043Z,7.44
2023-12-11T22:14:21.200Z,7.46
2023-12-11T22:19:25.488Z,7.44
2023-12-11T22:24:29.623Z,7.46
2023-12-11T22:29:33.657Z,7.45
2023-12-11T22:34:38.007Z,7.43
2023-12-11T22:39:42.024Z,7.45
2023-12-11T22:44:46.155Z,7.46
2023-12-11T22:49:50.379Z,7.48
2023-12-11T22:54:54.576Z,7.49
2023-12-11T22:59:58.626Z,7.48
2023-12-11T23:05:03.000Z,7.48
2023-12-11T23:10:07.051Z,7.50
2023-12-11T23:15:11.145Z,7.54
2023-12-11T23:20:15.286Z,7.51
2023-12-11T23:25:21.898Z,7.50
2023-12-11T23:30:23.672Z,7.48
2023-12-11T23:35:27.865Z,7.50
2023-12-11T23:40:32.032Z,7.50
2023-12-11T23:45:36.154Z,7.51
2023-12-11T23:50:40.356Z,7.51
2023-12-11T23:55:45.574Z,7.53
